Date,TemperatureHighF,TemperatureAvgF,TemperatureLowF,DewpointHighF,DewpointAvgF,DewpointLowF,HumidityHigh,HumidityAvg,HumidityLow,PressureMaxIn,PressureMinIn,WindSpeedMaxMPH,WindSpeedAvgMPH,GustSpeedMaxMPH,PrecipitationSumIn
2012-1-1,55,43,33,46,35,24,86,73,42,30.16,29.84,13,1,20,0.00
2012-1-2,44,35,26,27,17,10,70,48,34,30.07,29.96,21,2,21,0.00
2012-1-3,28,26,24,13,10,7,60,52,43,30.30,30.06,12,2,13,0.00
2012-1-4,42,32,22,26,16,10,62,50,37,30.31,30.01,8,0,8,0.00
2012-1-5,50,43,38,28,25,22,59,50,39,30.10,29.99,10,2,14,0.00
2012-1-6,64,50,39,32,27,24,59,42,27,30.06,29.93,20,1,20,0.00
2012-1-7,63,54,47,48,40,25,74,59,37,30.11,29.91,27,1,27,0.00
2012-1-8,55,46,35,36,32,28,78,60,41,30.29,30.11,20,0,35,0.00
2012-1-9,46,41,38,34,32,29,84,72,59,30.28,30.06,6,0,6,0.08
2012-1-10,54,42,32,35,32,28,88,70,46,30.13,30.02,15,0,18,0.00
2012-1-11,42,40,36,40,36,29,93,86,73,30.04,29.56,1,0,9,0.81
2012-1-12,56,48,40,47,43,35,94,83,72,29.61,29.44,12,1,17,0.06
2012-1-13,41,32,29,35,19,16,81,60,53,30.04,29.52,14,3,14,0.00
2012-1-14,39,33,29,26,20,17,76,60,42,30.16,30.04,11,1,15,0.00
2012-1-15,38,33,28,27,22,18,80,65,46,30.54,30.12,7,1,8,0.00
2012-1-16,45,34,24,33,26,18,80,71,58,30.55,30.22,8,0,8,0.00
2012-1-17,58,47,39,49,41,33,91,79,68,30.23,29.84,17,0,22,0.05
2012-1-18,53,39,29,49,25,19,86,58,48,30.17,29.85,12,3,15,0.00
2012-1-19,43,33,24,26,22,17,78,64,50,30.21,30.01,13,0,13,0.00
2012-1-20,48,40,33,32,29,24,83,65,55,30.19,30.02,5,0,5,0.16
2012-1-21,46,39,34,44,36,31,92,89,83,30.22,29.89,5,0,5,0.37
2012-1-22,39,36,34,37,33,31,91,88,85,30.41,30.22,3,0,3,0.02
2012-1-23,41,38,36,40,36,33,94,92,90,30.32,29.96,1,0,1,0.16
2012-1-24,58,46,35,44,37,33,95,73,45,30.25,30.00,11,0,18,0.00
2012-1-25,57,45,35,40,35,29,82,69,53,30.35,30.20,30,0,30,0.00
2012-1-26,61,50,39,56,44,34,91,79,68,30.20,29.68,23,1,29,0.04
2012-1-27,62,54,42,58,44,31,92,70,56,30.04,29.54,18,3,18,0.31
2012-1-28,53,43,33,39,31,20,83,64,44,30.27,30.01,20,1,25,0.00
2012-1-29,48,41,32,20,18,17,58,42,29,30.35,30.17,18,2,24,0.00
2012-1-30,55,43,34,29,24,19,63,47,32,30.42,30.20,13,1,13,0.00
2012-1-31,66,49,33,33,29,25,74,50,25,30.33,30.19,27,1,31,0.00
2012-2-1,64,54,44,51,42,31,87,65,52,30.20,30.04,21,1,25,0.06
2012-2-2,60,54,46,50,41,30,89,63,36,30.34,29.98,12,2,16,0.02
2012-2-3,57,45,35,35,31,27,78,59,41,30.51,30.33,19,0,19,0.00
2012-2-4,49,43,38,42,36,29,88,76,63,30.34,30.07,4,0,4,0.22
2012-2-5,42,40,37,39,37,34,90,89,88,30.27,30.03,1,0,1,0.19
2012-2-6,50,42,35,41,36,32,90,81,70,30.29,30.11,19,0,26,0.00
2012-2-7,57,45,36,37,33,29,78,63,42,30.21,30.11,21,1,21,0.00
2012-2-8,43,38,33,37,31,28,85,76,64,30.25,30.12,8,1,13,0.04
2012-2-9,46,39,34,29,26,24,70,60,45,30.31,30.19,13,2,13,0.00
2012-2-10,46,38,30,35,30,24,78,72,63,30.21,29.89,5,0,5,0.00
2012-2-11,42,33,20,36,20,2,81,61,43,30.10,29.79,19,4,19,0.00
2012-2-12,37,28,20,15,10,2,55,47,36,30.23,30.10,12,3,14,0.00
2012-2-13,48,37,28,23,18,15,60,48,32,30.27,30.08,25,1,25,0.00
2012-2-14,50,43,37,39,31,23,79,62,49,30.10,29.96,7,0,7,0.00
2012-2-15,59,48,38,39,34,30,77,59,41,30.29,30.07,27,0,27,0.00
2012-2-16,51,47,45,46,41,34,91,80,59,30.27,30.03,4,0,8,0.20
2012-2-17,56,50,42,44,34,26,80,57,34,30.15,30.04,22,2,27,0.00
2012-2-18,62,49,38,39,32,26,75,53,31,30.14,29.96,21,0,24,0.00
2012-2-19,50,40,34,33,31,29,88,71,47,30.05,29.85,8,0,8,0.08
2012-2-20,43,36,31,33,30,27,89,81,64,30.35,30.01,17,0,22,0.65
2012-2-21,49,38,27,38,31,23,85,77,64,30.34,29.93,10,0,16,0.00
2012-2-22,60,46,34,46,38,30,89,75,40,29.94,29.58,21,1,21,0.43
2012-2-23,66,52,40,54,46,38,91,79,52,29.67,29.53,37,1,38,0.00
2012-2-24,71,53,42,60,44,23,94,72,40,29.86,29.45,22,3,22,0.15
2012-2-25,42,38,34,28,18,14,65,45,34,30.35,29.86,20,4,20,0.00
2012-2-26,52,40,30,28,22,16,62,49,36,30.48,30.35,20,1,28,0.00
2012-2-27,62,45,30,38,31,23,76,60,38,30.44,30.25,22,0,25,0.00
2012-2-28,66,52,40,36,31,26,70,46,26,30.45,30.27,20,0,28,0.00
2012-2-29,66,53,45,58,45,30,92,76,52,30.27,29.75,28,1,33,0.63
2012-3-1,68,61,49,56,38,26,93,47,20,29.92,29.73,18,2,28,0.00
2012-3-2,50,47,44,43,39,31,90,75,52,30.04,29.72,4,0,4,0.61
2012-3-3,56,49,45,46,37,24,94,66,33,29.80,29.60,29,1,29,0.26
2012-3-4,48,42,37,33,23,18,62,48,39,29.99,29.71,12,2,12,0.00
2012-3-5,41,37,34,31,24,18,83,60,44,30.49,29.87,11,1,14,0.00
2012-3-6,56,41,29,32,25,20,73,55,36,30.66,30.48,28,1,28,0.00
2012-3-7,67,48,32,46,35,24,75,61,43,30.61,30.41,20,1,22,0.00
2012-3-8,68,58,47,53,47,39,84,69,53,30.41,30.11,22,1,28,0.02
2012-3-9,57,51,44,53,33,23,87,52,31,30.38,30.08,17,2,26,0.05
2012-3-10,56,45,36,25,23,21,58,43,27,30.52,30.38,31,2,32,0.00
2012-3-11,66,49,34,38,30,25,71,51,33,30.57,30.39,27,0,27,0.00
2012-3-12,73,56,40,53,42,31,72,60,49,30.42,30.20,30,1,32,0.00
2012-3-13,78,66,53,56,51,48,84,61,37,30.20,30.06,26,1,38,0.00
2012-3-14,80,67,54,56,49,42,80,56,28,30.26,30.14,36,1,36,0.00
2012-3-15,69,61,52,53,49,44,77,66,54,30.29,30.16,29,2,40,0.00
2012-3-16,73,63,56,58,54,50,83,72,53,30.22,30.12,21,0,27,0.00
2012-3-17,76,65,57,60,55,52,85,71,53,30.27,30.19,27,0,32,0.02
2012-3-18,66,62,58,61,58,54,92,85,81,30.34,30.21,26,1,33,0.32
2012-3-19,77,64,55,65,57,52,94,79,57,30.28,30.09,41,1,41,0.10
2012-3-20,80,65,56,65,58,52,88,79,52,30.28,30.12,19,1,38,0.13
2012-3-21,74,64,57,64,59,54,93,83,68,30.33,30.18,33,1,38,0.00
2012-3-22,80,68,58,65,59,54,89,74,55,30.26,30.10,35,1,41,0.00
2012-3-23,84,69,57,64,57,52,87,68,39,30.14,29.94,19,1,25,0.02
2012-3-24,69,62,57,62,58,55,93,87,75,29.98,29.79,26,1,30,1.06
2012-3-25,59,57,55,57,55,53,94,93,91,29.87,29.75,14,0,14,0.36
2012-3-26,68,60,52,56,44,23,94,59,21,30.17,29.86,14,4,22,0.00
2012-3-27,64,51,40,38,32,26,68,49,34,30.35,30.17,23,0,30,0.00
2012-3-28,82,62,43,55,46,36,77,59,36,30.21,29.78,30,2,31,0.00
2012-3-29,76,68,58,54,41,33,67,39,22,29.99,29.83,26,2,27,0.00
2012-3-30,74,62,52,52,45,38,64,55,43,30.09,29.83,21,0,32,0.00
2012-3-31,75,66,59,57,51,45,81,60,40,29.85,29.72,24,1,35,0.00
2012-4-1,74,62,48,53,47,41,79,60,34,29.92,29.67,38,1,39,0.00
2012-4-2,77,69,58,57,45,24,71,46,16,29.96,29.62,32,2,32,0.00
2012-4-3,81,62,46,58,46,36,71,57,41,30.04,29.83,34,1,37,0.00
2012-4-4,79,70,61,62,56,53,75,61,47,29.84,29.64,33,2,38,0.00
2012-4-5,68,56,49,56,48,44,84,76,61,29.91,29.69,22,1,22,0.15
2012-4-6,66,55,47,44,38,26,82,58,28,30.14,29.88,20,1,24,0.00
2012-4-7,69,54,39,35,27,17,71,41,15,30.28,30.10,16,1,16,0.00
2012-4-8,73,59,46,38,32,27,59,38,24,30.16,29.93,22,2,22,0.00
2012-4-9,71,61,46,33,29,24,52,31,21,30.05,29.81,20,2,40,0.00
2012-4-10,68,60,53,31,23,12,41,26,13,29.91,29.76,14,3,14,0.00
2012-4-11,53,46,41,26,23,20,49,42,28,30.16,29.88,11,2,12,0.00
2012-4-12,63,50,40,32,29,25,61,46,29,30.26,30.11,26,1,34,0.00
2012-4-13,67,53,42,38,34,31,70,50,30,30.29,30.19,25,0,35,0.00
2012-4-14,77,59,42,47,41,34,74,53,33,30.31,30.11,25,1,33,0.00
2012-4-15,85,69,53,59,51,44,75,55,35,30.17,30.03,21,1,31,0.00
2012-4-16,89,74,60,62,57,51,81,58,28,30.13,30.00,22,1,25,0.00
2012-4-17,78,70,63,59,50,43,66,51,31,30.22,30.07,35,2,35,0.00
2012-4-18,63,55,53,52,50,49,89,84,61,30.26,30.12,10,0,10,0.89
2012-4-19,61,56,52,55,52,49,90,85,78,30.13,30.05,24,1,27,0.02
2012-4-20,72,60,49,60,53,46,91,79,61,30.05,29.84,33,1,33,0.00
2012-4-21,74,62,57,61,56,52,92,84,59,29.87,29.71,29,1,29,0.27
2012-4-22,58,52,46,56,50,40,94,91,80,29.79,29.58,8,0,11,0.69
2012-4-23,51,46,42,40,34,24,81,65,36,29.65,29.50,8,3,8,0.02
2012-4-24,61,52,44,31,25,19,53,37,22,29.80,29.63,8,2,12,0.00
2012-4-25,67,55,43,52,41,31,80,61,39,29.93,29.80,16,0,30,0.00
2012-4-26,70,60,56,63,57,51,94,87,77,29.90,29.73,28,1,41,0.60
2012-4-27,69,61,55,58,45,36,88,57,30,30.15,29.83,25,2,30,0.00
2012-4-28,58,54,50,46,42,37,77,65,54,30.34,30.10,17,0,21,0.02
2012-4-29,73,60,49,60,52,44,85,75,64,30.24,30.11,24,2,40,0.00
2012-4-30,64,62,61,60,58,56,91,86,77,30.26,30.11,36,2,36,0.00
2012-5-1,80,70,62,68,63,60,95,82,61,30.12,30.02,23,1,37,0.20
2012-5-2,88,75,63,69,64,60,91,72,46,30.12,30.02,19,0,22,0.00
2012-5-3,89,75,65,70,64,57,87,69,48,30.15,30.03,30,2,30,0.00
2012-5-4,83,72,61,66,61,55,84,69,53,30.08,29.91,20,0,23,0.00
2012-5-5,73,69,66,66,64,61,89,83,73,29.98,29.87,29,4,37,0.02
2012-5-6,78,70,64,67,64,60,91,82,68,30.07,29.96,26,1,29,0.00
2012-5-7,72,68,66,64,62,61,86,81,74,30.07,29.96,30,3,39,0.00
2012-5-8,74,68,66,67,63,59,91,84,77,30.00,29.83,28,2,34,0.24
2012-5-9,67,62,55,64,59,52,93,90,80,29.87,29.72,22,1,26,0.19
2012-5-10,67,58,51,52,47,42,91,68,41,30.02,29.74,20,2,25,0.00
2012-5-11,72,59,46,45,43,40,81,58,33,30.24,30.02,25,0,25,0.00
2012-5-12,74,62,48,55,49,42,79,64,49,30.36,30.21,22,1,34,0.00
2012-5-13,73,65,58,60,56,52,86,75,61,30.25,30.12,28,1,31,0.12
2012-5-14,66,63,61,64,61,58,95,92,86,30.12,29.95,33,3,42,1.73
2012-5-15,73,66,62,67,64,61,96,90,78,30.01,29.94,30,1,32,0.00
2012-5-16,78,68,59,63,59,56,93,75,46,30.00,29.90,25,1,34,0.00
2012-5-17,79,68,57,66,59,53,87,74,58,30.10,29.96,29,0,29,0.00
2012-5-18,73,67,61,58,54,50,72,64,56,30.17,30.08,36,1,36,0.00
2012-5-19,77,65,54,57,54,49,82,68,46,30.20,30.10,17,0,24,0.00
2012-5-20,82,68,56,60,56,51,84,69,46,30.19,30.08,30,1,30,0.00
2012-5-21,82,69,61,66,60,55,87,74,52,30.08,29.88,25,2,38,0.24
2012-5-22,75,68,62,67,63,59,91,83,70,29.94,29.82,23,2,37,0.00
2012-5-23,75,69,65,66,63,61,90,83,72,29.96,29.86,28,3,35,0.02
2012-5-24,76,69,65,68,64,61,91,86,76,30.08,29.96,20,1,27,0.04
2012-5-25,85,75,67,71,66,63,91,75,52,30.16,30.07,21,1,34,0.02
2012-5-26,86,76,65,72,66,61,86,73,51,30.19,30.09,21,1,30,0.00
2012-5-27,86,77,68,71,67,64,87,73,54,30.18,30.07,23,2,29,0.00
2012-5-28,86,77,68,73,68,63,86,74,61,30.12,29.97,26,3,26,0.00
2012-5-29,87,75,68,71,67,64,89,76,57,30.00,29.79,39,5,41,0.51
2012-5-30,83,74,68,70,63,53,92,72,37,29.88,29.76,31,4,31,0.00
2012-5-31,85,74,65,64,60,58,79,64,42,29.91,29.81,34,3,35,0.00
2012-6-1,78,69,63,68,63,52,88,81,68,29.89,29.66,24,2,28,0.02
2012-6-2,70,63,56,52,49,46,80,61,45,29.93,29.81,25,0,29,0.00
2012-6-3,77,66,53,58,52,47,81,63,44,29.94,29.79,30,1,30,0.00
2012-6-4,79,71,62,59,54,50,78,58,36,29.83,29.67,21,1,32,0.00
2012-6-5,72,65,61,58,56,55,85,75,56,29.95,29.77,19,0,22,0.17
2012-6-6,68,61,59,58,56,55,90,84,70,30.04,29.94,22,0,22,0.40
2012-6-7,77,69,56,61,57,52,89,68,46,30.08,29.99,20,0,20,0.06
2012-6-8,80,68,56,61,56,52,88,69,45,30.10,29.98,20,0,30,0.00
2012-6-9,84,78,69,62,59,57,74,52,41,30.09,30.00,26,2,27,0.00
2012-6-10,87,74,64,67,60,56,83,64,42,30.15,30.06,28,2,34,0.00
2012-6-11,79,72,68,71,65,58,90,80,64,30.15,30.00,24,4,27,0.51
2012-6-12,84,74,70,74,70,67,93,86,65,30.01,29.84,34,2,34,0.71
2012-6-13,81,74,68,70,66,60,92,77,58,30.06,29.91,32,4,32,0.02
2012-6-14,79,69,60,64,60,55,85,72,56,30.20,30.07,30,2,34,0.00
2012-6-15,78,70,65,64,61,59,86,73,59,30.27,30.18,29,3,29,0.00
2012-6-16,79,69,60,61,58,55,84,69,52,30.32,30.17,32,2,32,0.00
2012-6-17,79,69,60,65,60,54,84,73,62,30.21,30.03,22,0,32,0.00
2012-6-18,79,71,68,72,66,63,90,84,74,30.09,30.02,26,2,26,0.67
2012-6-19,86,76,68,73,69,65,93,81,62,30.16,30.09,25,2,33,0.00
2012-6-20,91,79,69,74,70,66,89,75,53,30.19,30.07,26,1,28,0.00
2012-6-21,91,80,71,75,70,66,87,73,52,30.07,29.91,20,0,20,0.00
2012-6-22,88,78,74,73,69,66,85,75,53,29.96,29.84,25,0,29,0.02
2012-6-23,86,77,69,69,64,60,88,66,42,30.04,29.91,28,2,30,0.00
2012-6-24,87,75,66,69,64,60,81,69,51,30.05,29.91,29,3,29,0.00
2012-6-25,88,78,68,70,64,53,86,64,45,29.94,29.74,23,2,24,0.00
2012-6-26,81,71,62,55,51,48,63,49,35,29.96,29.84,29,3,34,0.00
2012-6-27,85,72,58,59,54,50,75,56,35,30.03,29.92,30,2,35,0.00
2012-6-28,94,78,62,64,60,54,78,56,33,30.02,29.84,23,1,24,0.00
2012-6-29,101,90,79,76,68,60,57,48,40,29.99,29.76,8,1,12,0.00
2012-6-30,99,85,73,75,67,61,71,56,39,29.92,29.81,18,0,18,0.00
2012-7-1,94,85,76,74,66,62,72,55,36,30.04,29.86,8,0,8,0.00
2012-7-2,91,87,80,68,66,65,65,50,43,30.02,29.96,4,0,6,0.06
2012-7-3,95,81,73,73,69,66,80,67,45,30.04,29.94,23,0,23,0.00
2012-7-4,95,83,74,73,69,66,78,63,44,30.00,29.90,8,0,8,0.00
2012-7-5,97,84,75,76,69,65,79,62,39,29.97,29.88,7,0,7,0.02
2012-7-6,96,84,74,73,68,64,75,60,42,30.02,29.94,6,0,6,0.00
2012-7-7,98,87,75,76,70,66,81,60,36,30.02,29.91,19,0,19,0.00
2012-7-8,100,88,78,75,71,68,76,58,38,29.97,29.83,7,0,7,0.00
2012-7-9,92,81,75,74,70,66,84,70,52,30.02,29.88,7,0,7,0.14
2012-7-10,81,75,70,70,68,66,90,80,65,30.07,29.98,31,2,31,0.14
2012-7-11,80,74,71,70,66,62,86,76,64,30.17,30.05,32,4,32,0.00
2012-7-12,77,73,68,66,64,62,83,75,65,30.20,30.15,24,2,24,0.00
2012-7-13,79,74,70,69,66,64,85,77,69,30.23,30.16,19,0,19,0.00
2012-7-14,87,76,71,75,69,65,89,80,65,30.22,30.10,7,0,7,0.20
2012-7-15,88,79,71,75,71,68,93,79,61,30.20,30.04,7,0,15,0.00
2012-7-16,91,80,74,73,71,69,85,75,52,30.09,29.93,7,0,12,0.06
2012-7-17,93,81,72,75,71,68,88,71,50,30.01,29.88,7,0,7,0.00
2012-7-18,94,83,76,76,71,69,82,69,50,30.00,29.90,5,0,6,0.00
2012-7-19,92,79,72,75,71,68,88,75,53,30.02,29.91,16,0,16,0.20
2012-7-20,79,75,70,71,69,67,91,84,74,29.98,29.90,24,1,26,0.00
2012-7-21,87,78,72,76,72,68,90,80,68,30.12,29.94,5,0,5,0.00
2012-7-22,83,77,73,75,71,67,86,81,74,30.19,30.10,6,0,6,0.00
2012-7-23,87,76,73,76,72,69,93,87,65,30.17,30.02,19,0,19,0.43
2012-7-24,84,78,73,76,71,66,94,80,66,30.03,29.85,8,1,8,0.00
2012-7-25,90,79,70,75,70,64,85,74,56,29.99,29.87,16,0,16,0.00
2012-7-26,96,85,76,75,72,70,88,67,45,29.91,29.78,8,1,8,0.00
2012-7-27,91,81,74,76,71,68,85,71,55,29.97,29.84,7,0,7,0.08
2012-7-28,89,79,70,70,66,61,90,68,42,30.01,29.92,28,2,28,0.00
2012-7-29,86,78,70,68,65,63,81,66,52,30.05,29.96,27,2,28,0.00
2012-7-30,88,78,70,72,67,64,82,70,54,30.07,29.97,24,2,24,0.00
2012-7-31,86,77,69,71,67,64,84,74,60,30.02,29.88,26,2,29,0.00
2012-8-1,88,73,65,76,67,62,91,82,55,29.98,29.84,31,5,32,1.33
2012-8-2,88,76,65,74,68,63,94,80,59,29.95,29.87,20,2,20,0.00
2012-8-3,88,78,71,76,71,67,88,79,64,30.08,29.94,13,0,13,0.00
2012-8-4,86,79,72,75,71,68,87,77,65,30.18,30.07,7,0,7,0.00
2012-8-5,86,78,73,78,72,69,94,85,71,30.20,30.08,6,0,6,0.71
2012-8-6,78,75,72,73,72,70,95,90,83,30.13,30.02,2,0,2,0.00
2012-8-7,84,77,70,74,71,67,93,82,68,30.05,29.95,15,0,15,0.00
2012-8-8,89,80,74,73,71,63,89,76,44,30.03,29.94,7,0,7,0.00
2012-8-9,89,79,70,74,70,66,88,76,57,30.00,29.85,19,0,19,0.14
2012-8-10,83,75,70,73,69,67,92,83,65,29.86,29.77,17,0,17,0.04
2012-8-11,83,75,69,69,66,61,89,74,54,29.96,29.82,17,0,19,0.02
2012-8-12,83,73,64,64,60,57,81,65,45,30.05,29.96,31,3,32,0.00
2012-8-13,83,73,64,67,63,58,82,70,56,30.08,29.94,20,1,20,0.00
2012-8-14,85,76,69,70,66,64,85,72,56,29.97,29.84,31,1,31,0.00
2012-8-15,78,74,70,68,66,64,85,77,66,30.00,29.89,30,2,30,0.00
2012-8-16,86,75,65,66,62,60,86,68,45,30.07,29.93,25,2,26,0.00
2012-8-17,86,75,66,67,64,60,83,68,51,29.99,29.85,28,2,28,0.00
2012-8-18,83,75,69,64,62,60,80,65,48,29.96,29.84,22,1,29,0.00
2012-8-19,72,68,65,64,63,61,91,84,71,29.96,29.89,31,10,37,1.14
2012-8-20,75,69,66,67,64,62,90,85,73,30.00,29.88,32,3,32,0.10
2012-8-21,81,71,62,64,62,59,90,74,49,30.09,30.00,27,2,32,0.00
2012-8-22,78,72,67,68,64,62,85,77,66,30.16,30.07,33,4,33,0.00
2012-8-23,83,74,66,69,65,62,89,75,55,30.18,30.10,30,3,31,0.00
2012-8-24,80,71,65,70,64,61,86,79,65,30.19,30.11,28,4,37,0.18
2012-8-25,74,68,63,64,62,58,86,79,69,30.21,30.14,29,3,33,0.00
2012-8-26,80,72,67,68,64,61,86,78,66,30.21,30.11,26,2,27,0.00
2012-8-27,86,75,66,71,66,62,89,75,57,30.19,30.01,27,2,27,0.00
2012-8-28,86,77,67,72,67,62,87,73,57,30.03,29.92,27,3,34,0.00
2012-8-29,87,76,67,67,64,62,84,68,46,30.03,29.94,27,3,27,0.00
2012-8-30,87,78,69,73,68,63,84,72,56,30.13,30.02,29,3,33,0.00
2012-8-31,93,81,70,73,69,65,88,69,48,30.20,30.07,24,1,28,0.00
2012-9-1,89,79,74,73,70,67,85,74,57,30.16,30.04,1,0,1,0.02
2012-9-2,87,77,72,76,71,69,89,82,64,30.08,29.94,20,1,20,0.14
2012-9-3,77,74,71,73,70,68,91,89,86,30.06,29.98,22,1,22,0.00
2012-9-4,83,77,73,74,72,70,92,85,73,30.01,29.90,7,1,7,0.00
2012-9-5,85,77,74,77,72,69,91,84,72,29.93,29.82,6,0,7,0.04
2012-9-6,83,76,72,74,70,66,93,83,65,29.98,29.85,20,0,25,0.02
2012-9-7,88,76,67,72,68,63,90,76,55,30.00,29.86,33,3,33,0.00
2012-9-8,83,73,66,72,64,54,88,75,56,29.92,29.70,30,4,31,0.00
2012-9-9,76,66,57,58,54,51,83,65,44,30.03,29.88,28,3,32,0.00
2012-9-10,77,66,56,56,51,47,83,62,40,30.20,30.03,22,1,26,0.00
2012-9-11,78,64,52,57,52,46,80,65,47,30.34,30.20,27,1,32,0.00
2012-9-12,80,67,56,63,56,50,84,69,50,30.38,30.27,30,2,30,0.00
2012-9-13,79,66,56,58,53,50,85,65,36,30.39,30.26,27,2,27,0.00
2012-9-14,80,67,56,61,56,50,81,68,51,30.30,30.15,36,2,38,0.00
2012-9-15,78,69,61,64,60,56,84,74,62,30.22,30.11,30,3,33,0.00
2012-9-16,67,65,62,60,58,55,84,79,73,30.19,30.09,35,9,39,0.04
2012-9-17,67,65,63,64,62,59,93,88,84,30.12,29.91,37,6,37,0.45
2012-9-18,71,68,64,70,66,59,96,93,83,29.91,29.67,29,2,34,1.57
2012-9-19,69,62,56,59,55,52,90,77,60,30.16,29.89,34,2,34,0.00
2012-9-20,73,65,59,62,58,54,86,78,67,30.18,30.04,28,2,28,0.00
2012-9-21,79,67,56,63,59,53,90,76,55,30.09,29.96,28,1,33,0.00
2012-9-22,81,70,62,64,58,46,90,67,46,30.01,29.86,26,2,26,0.00
2012-9-23,69,61,54,47,41,36,66,49,31,30.19,30.00,22,1,29,0.00
2012-9-24,68,57,45,46,43,38,78,61,39,30.28,30.14,27,1,27,0.00
2012-9-25,71,58,46,57,50,40,84,75,57,30.24,30.09,18,0,18,0.02
2012-9-26,81,67,54,65,58,50,90,76,55,30.20,30.12,26,2,32,0.00
2012-9-27,82,70,60,66,61,56,89,74,49,30.20,30.08,32,2,37,0.00
2012-9-28,74,69,66,66,62,60,87,78,67,30.10,29.99,30,4,34,0.00
2012-9-29,69,65,60,61,60,56,87,82,74,30.02,29.90,34,4,34,0.00
2012-9-30,73,61,50,56,51,46,86,72,48,29.96,29.84,30,2,31,0.00
2012-10-1,61,59,58,57,55,51,92,86,75,29.95,29.89,15,0,15,0.16
2012-10-2,67,63,59,65,61,56,95,94,92,29.98,29.87,40,4,44,0.61
2012-10-3,77,69,65,71,66,63,96,90,78,30.15,29.97,28,3,29,0.00
2012-10-4,76,69,61,65,60,55,92,77,52,30.22,30.13,29,4,29,0.00
2012-10-5,76,65,54,60,56,50,87,74,50,30.20,30.00,30,1,30,0.00
2012-10-6,72,62,56,61,54,45,89,74,59,30.04,29.91,32,2,32,0.00
2012-10-7,56,52,46,48,46,42,88,82,65,30.19,30.02,3,0,3,0.33
2012-10-8,48,47,44,45,44,41,90,89,87,30.28,30.17,3,0,3,0.10
2012-10-9,59,52,47,52,48,44,90,85,75,30.22,30.07,25,1,25,0.00
2012-10-10,65,56,46,52,47,42,90,73,58,30.15,29.98,12,1,24,0.00
2012-10-11,64,53,44,46,41,36,77,64,50,30.31,30.15,17,1,27,0.00
2012-10-12,68,55,44,45,43,39,85,65,41,30.38,30.18,18,1,24,0.00
2012-10-13,62,53,43,45,42,37,79,67,54,30.50,30.32,16,1,22,0.00
2012-10-14,71,57,44,59,49,40,85,76,63,30.32,29.99,27,2,31,0.00
2012-10-15,70,63,55,62,54,40,92,73,46,29.99,29.73,26,2,29,0.14
2012-10-16,67,57,50,44,41,38,70,57,37,29.96,29.85,17,1,17,0.00
2012-10-17,68,54,43,51,44,36,82,69,53,30.03,29.88,25,1,26,0.00
2012-10-18,66,58,48,58,51,42,86,80,74,29.92,29.77,33,2,33,0.00
2012-10-19,69,60,51,56,47,41,88,66,36,29.78,29.65,19,1,19,0.00
2012-10-20,62,55,48,43,40,37,75,59,45,29.99,29.73,18,1,24,0.00
2012-10-21,65,52,43,44,40,36,79,63,40,30.18,29.99,18,1,18,0.00
2012-10-22,73,55,41,53,44,36,82,69,48,30.26,30.12,27,0,27,0.00
2012-10-23,78,61,47,58,50,42,85,68,44,30.19,30.06,20,1,20,0.00
2012-10-24,79,64,54,58,52,48,83,66,43,30.20,30.07,29,2,29,0.00
2012-10-25,78,63,52,58,51,46,82,66,45,30.19,30.09,25,1,25,0.00
2012-10-26,68,61,55,60,54,48,83,79,71,30.18,30.03,26,1,26,0.00
2012-10-27,67,62,60,60,56,53,90,81,70,30.03,29.82,31,2,31,0.04
2012-10-28,62,58,49,53,49,42,79,72,62,29.84,29.67,12,2,12,0.00
2012-10-29,49,44,42,42,36,32,83,76,64,29.71,29.22,10,4,15,0.08
2012-10-30,44,42,39,33,31,29,71,64,61,29.55,29.18,12,4,15,0.00
2012-10-31,48,45,43,35,34,32,67,65,61,29.75,29.55,11,2,11,0.00
2012-11-1,50,46,44,36,34,29,67,63,50,29.84,29.73,8,2,12,0.00
2012-11-2,55,49,44,34,29,26,60,46,34,29.99,29.82,8,2,11,0.00
2012-11-3,56,47,40,38,31,29,74,53,37,30.12,29.99,8,1,25,0.10
2012-11-4,52,46,42,44,40,34,85,78,69,30.10,29.98,4,0,4,0.08
2012-11-5,53,42,34,36,32,28,82,67,48,30.14,30.03,21,1,25,0.00
2012-11-6,42,37,32,33,30,26,80,75,69,30.19,29.99,4,0,4,0.00
2012-11-7,51,41,33,38,33,28,82,72,60,29.99,29.85,19,0,19,0.00
2012-11-8,56,46,38,33,26,22,75,48,29,30.17,29.96,8,2,8,0.00
2012-11-9,63,47,34,36,30,24,71,53,33,30.26,30.16,4,0,19,0.00
2012-11-10,70,49,35,41,34,27,77,57,33,30.36,30.25,23,0,27,0.00
2012-11-11,70,53,38,44,38,30,76,60,36,30.47,30.35,24,1,30,0.00
2012-11-12,63,60,54,59,54,44,90,82,69,30.39,30.13,26,2,32,0.08
2012-11-13,53,45,36,48,33,28,83,64,48,30.46,30.23,8,2,10,0.06
2012-11-14,46,38,31,32,29,25,80,70,56,30.54,30.39,6,0,7,0.00
2012-11-15,47,39,32,35,30,26,81,71,58,30.41,30.27,4,0,10,0.00
2012-11-16,54,40,30,36,30,25,83,68,46,30.45,30.29,22,0,32,0.00
2012-11-17,54,41,31,35,30,25,80,64,44,30.56,30.44,22,0,28,0.00
2012-11-18,53,46,37,39,34,28,72,64,56,30.56,30.44,22,1,37,0.00
2012-11-19,54,48,41,43,38,34,78,70,64,30.46,30.22,22,1,22,0.00
2012-11-20,53,44,37,44,37,32,84,78,69,30.23,30.07,2,0,3,0.00
2012-11-21,59,43,33,41,33,29,85,70,40,30.23,30.14,6,0,6,0.00
2012-11-22,60,43,32,39,30,26,79,62,36,30.30,30.17,25,0,27,0.00
2012-11-23,61,47,32,45,34,25,79,62,45,30.17,29.89,19,2,32,0.00
2012-11-24,46,37,32,29,22,18,58,53,46,30.14,29.93,13,4,13,0.00
2012-11-25,52,39,30,23,20,18,61,48,29,30.12,29.96,14,1,20,0.00
2012-11-26,60,48,37,38,29,21,62,47,35,30.19,30.03,16,1,16,0.00
2012-11-27,50,47,42,44,40,35,82,74,62,30.25,30.11,6,0,6,0.02
2012-11-28,50,42,36,35,27,21,75,55,35,30.40,30.24,8,1,8,0.00
2012-11-29,53,38,28,31,25,19,72,59,40,30.47,30.34,21,1,24,0.00
2012-11-30,58,42,31,39,30,23,76,63,45,30.39,30.27,24,0,32,0.00
2012-12-1,60,45,33,45,35,26,79,69,57,30.43,30.31,23,1,28,0.00
2012-12-2,63,50,37,50,41,32,83,73,62,30.38,30.19,25,1,30,0.00
2012-12-3,70,59,52,56,50,46,83,73,60,30.28,30.20,19,0,20,0.00
2012-12-4,69,56,44,54,47,40,87,73,54,30.30,30.12,29,2,30,0.00
2012-12-5,60,55,43,52,38,28,77,54,30,30.25,30.08,7,1,11,0.00
2012-12-6,48,42,33,34,29,25,74,62,54,30.36,30.21,18,0,18,0.00
2012-12-7,53,47,42,44,38,33,80,72,64,30.21,30.01,0,0,0,0.00
2012-12-8,65,52,42,54,45,37,89,77,63,30.04,29.93,25,1,33,0.00
2012-12-9,64,53,44,55,48,40,88,82,72,30.13,29.96,23,1,30,0.00
2012-12-10,61,56,53,57,53,48,93,89,79,29.96,29.63,22,1,22,0.02
2012-12-11,53,44,37,47,33,27,79,66,57,30.22,29.74,7,2,10,0.00
2012-12-12,45,40,37,33,30,27,71,67,61,30.38,30.21,4,0,6,0.00
2012-12-13,47,38,31,30,26,22,77,65,47,30.46,30.35,18,0,18,0.00
2012-12-14,56,38,26,34,25,18,77,60,38,30.37,30.22,14,0,14,0.00
2012-12-15,55,44,35,36,30,25,71,60,47,30.28,30.07,15,0,15,0.00
2012-12-16,47,45,42,44,40,35,91,84,65,30.08,29.84,3,0,4,0.14
2012-12-17,53,50,45,51,47,43,93,91,88,29.89,29.62,2,0,2,0.02
2012-12-18,52,48,43,47,40,33,87,74,57,29.89,29.62,11,2,11,0.00
2012-12-19,60,50,42,38,34,32,69,55,40,30.16,29.85,8,2,12,0.00
2012-12-20,44,42,39,39,35,32,90,78,65,30.19,29.47,6,0,6,0.51
2012-12-21,44,37,34,41,25,20,91,62,55,29.78,29.47,12,5,15,0.00
2012-12-22,42,37,34,23,21,18,60,53,42,30.10,29.77,13,4,13,0.00
2012-12-23,53,41,30,34,25,18,66,52,39,30.11,29.95,29,1,29,0.00
2012-12-24,46,41,40,38,36,34,89,82,63,30.01,29.88,1,0,1,0.47
2012-12-25,51,43,36,44,39,34,92,84,72,30.15,29.92,2,0,4,0.02
2012-12-26,43,36,34,38,34,32,93,90,82,30.13,29.53,10,1,10,1.14
2012-12-27,39,36,32,34,27,24,82,71,66,30.10,29.58,13,5,16,0.00
2012-12-28,39,35,31,30,28,24,78,74,69,30.17,29.98,4,0,4,0.00
2012-12-29,45,38,34,39,31,25,90,77,63,29.99,29.65,14,2,14,0.20
2012-12-30,39,35,32,25,21,19,65,57,49,30.38,29.98,12,3,17,0.00
2012-12-31,44,37,30,25,22,20,72,56,40,30.36,30.07,4,0,4,0.00
2013-1-1,50,46,42,42,34,21,81,65,41,30.08,29.90,7,1,13,0.02